Погода Мачингана неделю

Южная Провинция, Малави

15 - 21 июля
  • 15июля
    Сегодня
    +15°
    +29°
    Ясно и безоблачно
    ВремяПогодаТемператураВлажностьДавлениеВетер, м/сВероятность осадков
    02:00Ясно и безоблачно+16°C81 %705 мм1.9 м/с5 %
    05:00Ясно и безоблачно+14°C78 %705 мм2.0 м/с5 %
    08:00Ясно и безоблачно+20°C60 %708 мм4.0 м/с5 %
    11:00Ясно и безоблачно+25°C38 %708 мм2.6 м/с5 %
    14:00Ясно и безоблачно+27°C30 %707 мм1.9 м/с5 %
    17:00Ясно и безоблачно+27°C37 %707 мм1.8 м/с5 %
    20:00Ясно и безоблачно+21°C36 %706 мм2.0 м/с5 %
    23:00Ясно и безоблачно+20°C49 %707 мм3.0 м/с5 %
  • 16июля
    Вторник
    +15°
    +28°
    Небольшая облачность
    ВремяПогодаТемператураВлажностьДавлениеВетер, м/сВероятность осадков
    02:00Ясно и безоблачно+18°C64 %706 мм2.3 м/с5 %
    05:00Ясно и безоблачно+16°C70 %705 мм2.2 м/с5 %
    08:00Ясно и безоблачно+20°C57 %708 мм3.0 м/с5 %
    11:00Ясно и безоблачно+25°C34 %708 мм2.9 м/с5 %
    14:00Небольшая облачность+27°C28 %706 мм2.1 м/с5 %
    17:00Ясно и безоблачно+26°C32 %706 мм1.5 м/с5 %
    20:00Ясно и безоблачно+20°C45 %706 мм1.5 м/с5 %
    23:00Ясно и безоблачно+20°C57 %707 мм3.0 м/с5 %
  • 17июля
    Среда
    +15°
    +28°
    Облачно с прояснениями
    ВремяПогодаТемператураВлажностьДавлениеВетер, м/сВероятность осадков
    02:00Ясно и безоблачно+18°C64 %706 мм3.4 м/с5 %
    05:00Ясно и безоблачно+16°C85 %706 мм2.5 м/с5 %
    08:00Ясно и безоблачно+20°C71 %709 мм3.3 м/с5 %
    11:00Небольшая облачность+25°C37 %709 мм2.9 м/с5 %
    14:00Облачно с прояснениями+27°C29 %707 мм1.9 м/с5 %
    17:00Небольшая облачность+26°C34 %707 мм1.5 м/с5 %
    20:00Ясно и безоблачно+20°C47 %707 мм1.6 м/с5 %
    23:00Ясно и безоблачно+20°C61 %707 мм3.1 м/с5 %
  • 18июля
    Четверг
    +14°
    +28°
    Облачно с прояснениями
    ВремяПогодаТемператураВлажностьДавлениеВетер, м/сВероятность осадков
    02:00Ясно и безоблачно+18°C69 %706 мм3.6 м/с5 %
    05:00Ясно и безоблачно+16°C85 %706 мм3.4 м/с5 %
    08:00Практически безоблачно+19°C76 %709 мм3.6 м/с5 %
    11:00Небольшая облачность+25°C42 %709 мм2.8 м/с5 %
    14:00Облачно с прояснениями+27°C31 %707 мм2.3 м/с5 %
    17:00Практически безоблачно+26°C41 %707 мм1.2 м/с5 %
    20:00Ясно и безоблачно+21°C51 %707 мм2.0 м/с5 %
    23:00Ясно и безоблачно+21°C65 %707 мм3.4 м/с5 %
  • 19июля
    Пятница
    +14°
    +29°
    Ясно и безоблачно
    ВремяПогодаТемператураВлажностьДавлениеВетер, м/сВероятность осадков
    02:00Ясно и безоблачно+18°C75 %705 мм2.7 м/с5 %
    05:00Ясно и безоблачно+15°C89 %705 мм1.9 м/с5 %
    08:00Ясно и безоблачно+21°C67 %708 мм1.8 м/с5 %
    11:00Ясно и безоблачно+26°C37 %708 мм2.4 м/с5 %
    14:00Ясно и безоблачно+28°C26 %706 мм2.0 м/с5 %
    17:00Ясно и безоблачно+28°C28 %706 мм2.4 м/с5 %
    20:00Ясно и безоблачно+23°C42 %706 мм1.2 м/с5 %
    23:00Ясно и безоблачно+19°C55 %705 мм2.1 м/с5 %
Мы используем cookies
Соглашаюсь